Accueil
METAR-TAF:

METAR-TAF

Aéroports :

Rota, Espagne

latitude: 36-39N, longitude: 006-21W, altitude: 26 m

Observation

Le bulletin a été fait il y a 15 minutes, à 07:00 UTC
Vent 3 kt de est
Température 21°C
Humidité 60%
Pression 1015 hPa
Visibilité 10 km ou plus
pas de nuages en-dessous de 1500 mètres et pas de cumulonimbus.

METAR: LERT 290700Z 10003KT CAVOK 21/13 Q1015 NOSIG

Heure: 09:15 (07:15 UTC)

Prévision

Le bulletin a été fait il y a 2 heures et 15 minutes, à 05:00 UTC
Prévision valable du 29 à 06 UTC au 29 à 15 UTC
Vent 8 kt de est
Visibilité 10 km ou plus
pas de nuages en-dessous de 1500 mètres et pas de cumulonimbus.
Evoluant progressivement
du 29 à 12 UTC au 29 à 14 UTC
Vent 10 kt de ouest

TAF: LERT 290500Z 2906/2915 10008KT CAVOK BECMG 2912/2914 27010KT

Observations et prévisions météorologiques de plus de 4000 aéroports (messages METAR et TAF).

Les stations disponibles sont représentées par des disques jaunes et rouges sur la carte.

Passer la souris dessus pour voir le nom de la station.

Cliquer dessus pour voir les observations et prévisions météorologiques.

Pour changer de carte: cliquez sur les boutons verts avec une croix noire pour zoomer, sur le bouton vert avec un tiret pour effectuer un zoom arrière, ou sur les flèches vertes pour les cartes adjacentes.


METAR-TAF: